sensor_id;sensor_type;location;lat;lon;timestamp;temperature;humidity
17425;DHT22;8830;50.978;5.058;2022-07-29T00:01:59;19.70;99.90
17425;DHT22;8830;50.978;5.058;2022-07-29T00:04:26;19.70;99.90
17425;DHT22;8830;50.978;5.058;2022-07-29T00:09:21;19.60;99.90
17425;DHT22;8830;50.978;5.058;2022-07-29T00:11:48;19.60;99.90
17425;DHT22;8830;50.978;5.058;2022-07-29T00:14:17;19.50;99.90
17425;DHT22;8830;50.978;5.058;2022-07-29T00:16:46;19.30;99.90
17425;DHT22;8830;50.978;5.058;2022-07-29T00:19:13;19.20;99.90
17425;DHT22;8830;50.978;5.058;2022-07-29T00:21:40;19.20;99.90
17425;DHT22;8830;50.978;5.058;2022-07-29T00:24:07;19.10;99.90
17425;DHT22;8830;50.978;5.058;2022-07-29T00:26:35;19.00;99.90
17425;DHT22;8830;50.978;5.058;2022-07-29T00:29:03;19.10;99.90
17425;DHT22;8830;50.978;5.058;2022-07-29T00:31:30;19.10;99.90
17425;DHT22;8830;50.978;5.058;2022-07-29T00:33:58;19.10;99.90
17425;DHT22;8830;50.978;5.058;2022-07-29T00:36:25;19.10;99.90
17425;DHT22;8830;50.978;5.058;2022-07-29T00:38:52;19.10;99.90
17425;DHT22;8830;50.978;5.058;2022-07-29T00:41:20;19.10;99.90
17425;DHT22;8830;50.978;5.058;2022-07-29T00:43:47;19.10;99.90
17425;DHT22;8830;50.978;5.058;2022-07-29T00:46:14;19.10;99.90
17425;DHT22;8830;50.978;5.058;2022-07-29T00:48:41;19.00;99.90
17425;DHT22;8830;50.978;5.058;2022-07-29T00:51:09;19.00;99.90
17425;DHT22;8830;50.978;5.058;2022-07-29T00:53:37;19.00;99.90
17425;DHT22;8830;50.978;5.058;2022-07-29T00:56:05;19.00;99.90
17425;DHT22;8830;50.978;5.058;2022-07-29T00:58:33;19.00;99.90
17425;DHT22;8830;50.978;5.058;2022-07-29T01:01:00;19.00;99.90
17425;DHT22;8830;50.978;5.058;2022-07-29T01:03:27;18.90;99.90
17425;DHT22;8830;50.978;5.058;2022-07-29T01:05:55;18.90;99.90
17425;DHT22;8830;50.978;5.058;2022-07-29T01:08:23;18.90;99.90
17425;DHT22;8830;50.978;5.058;2022-07-29T01:10:51;19.00;99.90
17425;DHT22;8830;50.978;5.058;2022-07-29T01:13:19;18.90;99.90
17425;DHT22;8830;50.978;5.058;2022-07-29T01:15:51;18.90;99.90
17425;DHT22;8830;50.978;5.058;2022-07-29T01:18:27;18.90;99.90
17425;DHT22;8830;50.978;5.058;2022-07-29T01:23:59;18.90;99.90
17425;DHT22;8830;50.978;5.058;2022-07-29T01:26:41;18.80;99.90
17425;DHT22;8830;50.978;5.058;2022-07-29T01:29:16;18.90;99.90
17425;DHT22;8830;50.978;5.058;2022-07-29T01:31:48;18.90;99.90
17425;DHT22;8830;50.978;5.058;2022-07-29T01:34:21;18.90;99.90
17425;DHT22;8830;50.978;5.058;2022-07-29T01:36:55;19.00;99.90
17425;DHT22;8830;50.978;5.058;2022-07-29T01:39:27;19.00;99.90
17425;DHT22;8830;50.978;5.058;2022-07-29T01:41:57;19.00;99.90
17425;DHT22;8830;50.978;5.058;2022-07-29T01:44:34;18.90;99.90
17425;DHT22;8830;50.978;5.058;2022-07-29T01:47:08;18.90;99.90
17425;DHT22;8830;50.978;5.058;2022-07-29T01:49:42;18.90;99.90
17425;DHT22;8830;50.978;5.058;2022-07-29T01:52:15;18.90;99.90
17425;DHT22;8830;50.978;5.058;2022-07-29T01:54:50;18.90;99.90
17425;DHT22;8830;50.978;5.058;2022-07-29T01:57:22;18.90;99.90
17425;DHT22;8830;50.978;5.058;2022-07-29T01:59:54;18.80;99.90
17425;DHT22;8830;50.978;5.058;2022-07-29T02:02:23;18.70;99.90
17425;DHT22;8830;50.978;5.058;2022-07-29T02:04:53;18.70;99.90
17425;DHT22;8830;50.978;5.058;2022-07-29T02:07:22;18.80;99.90
17425;DHT22;8830;50.978;5.058;2022-07-29T02:09:50;18.80;99.90
17425;DHT22;8830;50.978;5.058;2022-07-29T02:12:19;18.70;99.90
17425;DHT22;8830;50.978;5.058;2022-07-29T02:14:51;18.60;99.90
17425;DHT22;8830;50.978;5.058;2022-07-29T02:17:33;18.60;99.90
17425;DHT22;8830;50.978;5.058;2022-07-29T02:20:03;18.60;99.90
17425;DHT22;8830;50.978;5.058;2022-07-29T02:22:33;18.50;99.90
17425;DHT22;8830;50.978;5.058;2022-07-29T02:27:29;18.50;99.90
17425;DHT22;8830;50.978;5.058;2022-07-29T02:30:00;18.50;99.90
17425;DHT22;8830;50.978;5.058;2022-07-29T02:32:30;18.40;99.90
17425;DHT22;8830;50.978;5.058;2022-07-29T02:35:00;18.40;99.90
17425;DHT22;8830;50.978;5.058;2022-07-29T02:37:28;18.40;99.90
17425;DHT22;8830;50.978;5.058;2022-07-29T02:39:57;18.40;99.90
17425;DHT22;8830;50.978;5.058;2022-07-29T02:42:26;18.40;99.90
17425;DHT22;8830;50.978;5.058;2022-07-29T02:44:54;18.30;99.90
17425;DHT22;8830;50.978;5.058;2022-07-29T02:47:24;18.20;99.90
17425;DHT22;8830;50.978;5.058;2022-07-29T02:50:00;18.10;99.90
17425;DHT22;8830;50.978;5.058;2022-07-29T02:52:33;18.10;99.90
17425;DHT22;8830;50.978;5.058;2022-07-29T02:55:07;18.10;99.90
17425;DHT22;8830;50.978;5.058;2022-07-29T02:57:42;18.10;99.90
17425;DHT22;8830;50.978;5.058;2022-07-29T03:00:11;18.00;99.90
17425;DHT22;8830;50.978;5.058;2022-07-29T03:02:42;18.00;99.90
17425;DHT22;8830;50.978;5.058;2022-07-29T03:05:16;18.00;99.90
17425;DHT22;8830;50.978;5.058;2022-07-29T03:07:46;18.00;99.90
17425;DHT22;8830;50.978;5.058;2022-07-29T03:10:14;18.00;99.90
17425;DHT22;8830;50.978;5.058;2022-07-29T03:12:42;18.00;99.90
17425;DHT22;8830;50.978;5.058;2022-07-29T03:15:10;17.90;99.90
17425;DHT22;8830;50.978;5.058;2022-07-29T03:17:38;20.90;99.90
17425;DHT22;8830;50.978;5.058;2022-07-29T03:20:07;17.90;99.90
17425;DHT22;8830;50.978;5.058;2022-07-29T03:22:40;17.90;99.90
17425;DHT22;8830;50.978;5.058;2022-07-29T03:25:10;17.80;99.90
17425;DHT22;8830;50.978;5.058;2022-07-29T03:27:38;17.70;99.90
17425;DHT22;8830;50.978;5.058;2022-07-29T03:30:06;17.80;99.90
17425;DHT22;8830;50.978;5.058;2022-07-29T03:32:34;17.70;99.90
17425;DHT22;8830;50.978;5.058;2022-07-29T03:35:02;17.60;99.90
17425;DHT22;8830;50.978;5.058;2022-07-29T03:37:29;17.60;99.90
17425;DHT22;8830;50.978;5.058;2022-07-29T03:39:58;17.60;99.90
17425;DHT22;8830;50.978;5.058;2022-07-29T03:42:28;17.50;99.90
17425;DHT22;8830;50.978;5.058;2022-07-29T03:44:57;17.50;99.90
17425;DHT22;8830;50.978;5.058;2022-07-29T03:47:27;17.50;99.90
17425;DHT22;8830;50.978;5.058;2022-07-29T03:50:00;17.40;99.90
17425;DHT22;8830;50.978;5.058;2022-07-29T03:52:28;17.40;99.90
17425;DHT22;8830;50.978;5.058;2022-07-29T03:54:57;17.30;99.90
17425;DHT22;8830;50.978;5.058;2022-07-29T03:57:27;17.20;99.90
17425;DHT22;8830;50.978;5.058;2022-07-29T03:59:55;17.20;99.90
17425;DHT22;8830;50.978;5.058;2022-07-29T04:02:22;17.10;99.90
17425;DHT22;8830;50.978;5.058;2022-07-29T04:04:51;17.10;99.90
17425;DHT22;8830;50.978;5.058;2022-07-29T04:07:18;17.20;99.90
17425;DHT22;8830;50.978;5.058;2022-07-29T04:09:46;17.10;99.90
17425;DHT22;8830;50.978;5.058;2022-07-29T04:12:15;17.10;99.90
17425;DHT22;8830;50.978;5.058;2022-07-29T04:14:45;17.10;99.90
17425;DHT22;8830;50.978;5.058;2022-07-29T04:17:13;17.00;99.90
17425;DHT22;8830;50.978;5.058;2022-07-29T04:19:40;17.10;99.90
17425;DHT22;8830;50.978;5.058;2022-07-29T04:22:07;17.10;99.90
17425;DHT22;8830;50.978;5.058;2022-07-29T04:24:35;17.10;99.90
17425;DHT22;8830;50.978;5.058;2022-07-29T04:27:03;17.10;99.90
17425;DHT22;8830;50.978;5.058;2022-07-29T04:31:59;17.20;99.90
17425;DHT22;8830;50.978;5.058;2022-07-29T04:34:26;17.20;99.90
17425;DHT22;8830;50.978;5.058;2022-07-29T04:36:54;17.20;99.90
17425;DHT22;8830;50.978;5.058;2022-07-29T04:39:22;17.20;99.90
17425;DHT22;8830;50.978;5.058;2022-07-29T04:41:49;17.30;99.90
17425;DHT22;8830;50.978;5.058;2022-07-29T04:44:16;17.30;99.90
17425;DHT22;8830;50.978;5.058;2022-07-29T04:49:14;17.30;99.90
17425;DHT22;8830;50.978;5.058;2022-07-29T04:51:41;17.20;99.90
17425;DHT22;8830;50.978;5.058;2022-07-29T04:54:08;17.30;99.90
17425;DHT22;8830;50.978;5.058;2022-07-29T04:56:35;17.30;99.90
17425;DHT22;8830;50.978;5.058;2022-07-29T04:59:02;17.30;99.90
17425;DHT22;8830;50.978;5.058;2022-07-29T05:01:30;17.30;99.90
17425;DHT22;8830;50.978;5.058;2022-07-29T05:03:59;17.30;99.90
17425;DHT22;8830;50.978;5.058;2022-07-29T05:06:27;17.40;99.90
17425;DHT22;8830;50.978;5.058;2022-07-29T05:08:54;17.40;99.90
17425;DHT22;8830;50.978;5.058;2022-07-29T05:16:16;17.50;99.90
17425;DHT22;8830;50.978;5.058;2022-07-29T05:18:43;17.70;99.90
17425;DHT22;8830;50.978;5.058;2022-07-29T05:31:05;21.20;99.90
17425;DHT22;8830;50.978;5.058;2022-07-29T05:33:32;22.40;99.90
17425;DHT22;8830;50.978;5.058;2022-07-29T05:35:59;23.90;99.90
17425;DHT22;8830;50.978;5.058;2022-07-29T05:38:31;24.40;99.90
17425;DHT22;8830;50.978;5.058;2022-07-29T05:40:58;24.40;99.90
17425;DHT22;8830;50.978;5.058;2022-07-29T05:43:26;24.90;99.90
17425;DHT22;8830;50.978;5.058;2022-07-29T05:45:55;24.90;99.90
17425;DHT22;8830;50.978;5.058;2022-07-29T05:48:23;25.10;99.90
17425;DHT22;8830;50.978;5.058;2022-07-29T05:50:52;25.60;99.90
17425;DHT22;8830;50.978;5.058;2022-07-29T05:53:21;26.10;99.90
17425;DHT22;8830;50.978;5.058;2022-07-29T05:55:52;25.90;99.90
17425;DHT22;8830;50.978;5.058;2022-07-29T05:58:21;26.20;99.90
17425;DHT22;8830;50.978;5.058;2022-07-29T06:00:50;26.30;99.90
17425;DHT22;8830;50.978;5.058;2022-07-29T06:03:18;27.50;99.90
17425;DHT22;8830;50.978;5.058;2022-07-29T06:05:45;27.60;99.90
17425;DHT22;8830;50.978;5.058;2022-07-29T06:10:41;27.10;99.90
17425;DHT22;8830;50.978;5.058;2022-07-29T06:18:05;28.30;99.90
17425;DHT22;8830;50.978;5.058;2022-07-29T06:20:35;28.30;99.90
17425;DHT22;8830;50.978;5.058;2022-07-29T06:23:03;28.60;99.90
17425;DHT22;8830;50.978;5.058;2022-07-29T06:25:30;28.60;99.90
17425;DHT22;8830;50.978;5.058;2022-07-29T06:28:00;28.20;99.90
17425;DHT22;8830;50.978;5.058;2022-07-29T06:30:30;28.10;99.90
17425;DHT22;8830;50.978;5.058;2022-07-29T06:35:29;28.50;99.90
17425;DHT22;8830;50.978;5.058;2022-07-29T06:37:58;28.70;99.90
17425;DHT22;8830;50.978;5.058;2022-07-29T06:40:28;28.90;99.90
17425;DHT22;8830;50.978;5.058;2022-07-29T06:43:13;28.80;99.90
17425;DHT22;8830;50.978;5.058;2022-07-29T06:48:12;29.60;99.90
17425;DHT22;8830;50.978;5.058;2022-07-29T06:50:41;30.10;99.90
17425;DHT22;8830;50.978;5.058;2022-07-29T06:53:10;29.80;99.90
17425;DHT22;8830;50.978;5.058;2022-07-29T06:55:37;29.70;99.90
17425;DHT22;8830;50.978;5.058;2022-07-29T07:03:03;30.10;99.90
17425;DHT22;8830;50.978;5.058;2022-07-29T07:05:32;29.70;99.90
17425;DHT22;8830;50.978;5.058;2022-07-29T07:07:59;29.40;99.90
17425;DHT22;8830;50.978;5.058;2022-07-29T07:10:27;29.40;99.90
17425;DHT22;8830;50.978;5.058;2022-07-29T07:15:22;29.10;99.90
17425;DHT22;8830;50.978;5.058;2022-07-29T07:17:50;29.60;99.90
17425;DHT22;8830;50.978;5.058;2022-07-29T07:27:43;29.80;99.90
17425;DHT22;8830;50.978;5.058;2022-07-29T07:30:11;31.00;99.90
17425;DHT22;8830;50.978;5.058;2022-07-29T07:35:11;31.60;99.90
17425;DHT22;8830;50.978;5.058;2022-07-29T07:40:12;32.00;99.90
17425;DHT22;8830;50.978;5.058;2022-07-29T07:47:38;31.40;99.90
17425;DHT22;8830;50.978;5.058;2022-07-29T07:50:11;31.50;99.90
17425;DHT22;8830;50.978;5.058;2022-07-29T07:52:50;31.50;99.90
17425;DHT22;8830;50.978;5.058;2022-07-29T07:55:20;31.40;99.90
17425;DHT22;8830;50.978;5.058;2022-07-29T08:00:17;31.50;99.90
17425;DHT22;8830;50.978;5.058;2022-07-29T08:02:44;31.50;99.90
17425;DHT22;8830;50.978;5.058;2022-07-29T08:05:13;32.20;99.90
17425;DHT22;8830;50.978;5.058;2022-07-29T08:07:44;32.20;99.90
17425;DHT22;8830;50.978;5.058;2022-07-29T08:13:03;31.30;99.90
17425;DHT22;8830;50.978;5.058;2022-07-29T08:18:02;30.80;99.90
17425;DHT22;8830;50.978;5.058;2022-07-29T08:23:08;30.90;99.90
17425;DHT22;8830;50.978;5.058;2022-07-29T08:25:37;30.90;99.90
17425;DHT22;8830;50.978;5.058;2022-07-29T08:28:05;31.10;99.90
17425;DHT22;8830;50.978;5.058;2022-07-29T08:30:34;30.70;99.90
17425;DHT22;8830;50.978;5.058;2022-07-29T08:33:02;31.60;99.90
17425;DHT22;8830;50.978;5.058;2022-07-29T08:35:32;31.60;99.90
17425;DHT22;8830;50.978;5.058;2022-07-29T08:38:00;31.80;99.90
17425;DHT22;8830;50.978;5.058;2022-07-29T08:42:59;32.30;99.90
17425;DHT22;8830;50.978;5.058;2022-07-29T08:45:28;31.60;99.90
17425;DHT22;8830;50.978;5.058;2022-07-29T08:47:56;31.60;99.90
17425;DHT22;8830;50.978;5.058;2022-07-29T08:50:26;31.70;99.90
17425;DHT22;8830;50.978;5.058;2022-07-29T08:52:53;31.90;99.90
17425;DHT22;8830;50.978;5.058;2022-07-29T08:55:21;32.40;99.90
17425;DHT22;8830;50.978;5.058;2022-07-29T08:57:48;32.90;99.90
17425;DHT22;8830;50.978;5.058;2022-07-29T09:00:18;32.80;99.90
17425;DHT22;8830;50.978;5.058;2022-07-29T09:02:51;33.00;99.90
17425;DHT22;8830;50.978;5.058;2022-07-29T09:05:24;33.00;99.90
17425;DHT22;8830;50.978;5.058;2022-07-29T09:07:53;32.70;99.90
17425;DHT22;8830;50.978;5.058;2022-07-29T09:10:20;32.40;99.90
17425;DHT22;8830;50.978;5.058;2022-07-29T09:12:48;32.50;99.90
17425;DHT22;8830;50.978;5.058;2022-07-29T09:15:17;33.10;99.90
17425;DHT22;8830;50.978;5.058;2022-07-29T09:17:46;32.80;99.90
17425;DHT22;8830;50.978;5.058;2022-07-29T09:20:16;32.40;99.90
17425;DHT22;8830;50.978;5.058;2022-07-29T09:22:44;32.40;99.90
17425;DHT22;8830;50.978;5.058;2022-07-29T09:25:15;32.40;99.90
17425;DHT22;8830;50.978;5.058;2022-07-29T09:27:49;32.00;99.90
17425;DHT22;8830;50.978;5.058;2022-07-29T09:30:18;31.40;99.90
17425;DHT22;8830;50.978;5.058;2022-07-29T09:32:55;31.00;99.90
17425;DHT22;8830;50.978;5.058;2022-07-29T09:35:25;30.40;99.90
17425;DHT22;8830;50.978;5.058;2022-07-29T09:37:53;29.00;99.90
17425;DHT22;8830;50.978;5.058;2022-07-29T09:40:22;28.10;99.90
17425;DHT22;8830;50.978;5.058;2022-07-29T09:42:50;28.00;99.90
17425;DHT22;8830;50.978;5.058;2022-07-29T09:45:30;27.90;99.90
17425;DHT22;8830;50.978;5.058;2022-07-29T09:47:58;27.80;99.90
17425;DHT22;8830;50.978;5.058;2022-07-29T09:50:36;27.60;99.90
17425;DHT22;8830;50.978;5.058;2022-07-29T09:53:04;27.50;99.90
17425;DHT22;8830;50.978;5.058;2022-07-29T09:55:31;27.60;99.90
17425;DHT22;8830;50.978;5.058;2022-07-29T09:58:16;27.50;99.90
17425;DHT22;8830;50.978;5.058;2022-07-29T10:00:46;27.50;99.90
17425;DHT22;8830;50.978;5.058;2022-07-29T10:03:14;27.50;99.90
17425;DHT22;8830;50.978;5.058;2022-07-29T10:05:43;27.70;99.90
17425;DHT22;8830;50.978;5.058;2022-07-29T10:08:12;27.50;99.90
17425;DHT22;8830;50.978;5.058;2022-07-29T10:10:41;27.50;99.90
17425;DHT22;8830;50.978;5.058;2022-07-29T10:13:11;27.50;99.90
17425;DHT22;8830;50.978;5.058;2022-07-29T10:15:41;27.50;99.90
17425;DHT22;8830;50.978;5.058;2022-07-29T10:18:14;27.60;99.90
17425;DHT22;8830;50.978;5.058;2022-07-29T10:23:13;27.70;99.90
17425;DHT22;8830;50.978;5.058;2022-07-29T10:28:09;27.90;99.90
17425;DHT22;8830;50.978;5.058;2022-07-29T10:30:38;28.00;99.90
17425;DHT22;8830;50.978;5.058;2022-07-29T10:33:17;27.80;99.90
17425;DHT22;8830;50.978;5.058;2022-07-29T10:36:05;27.80;99.90
17425;DHT22;8830;50.978;5.058;2022-07-29T10:38:48;27.60;99.90
17425;DHT22;8830;50.978;5.058;2022-07-29T10:41:43;27.90;99.90
17425;DHT22;8830;50.978;5.058;2022-07-29T10:44:16;28.00;99.90
17425;DHT22;8830;50.978;5.058;2022-07-29T10:46:45;28.00;99.90
17425;DHT22;8830;50.978;5.058;2022-07-29T10:49:15;28.00;99.90
17425;DHT22;8830;50.978;5.058;2022-07-29T10:51:56;27.90;99.90
17425;DHT22;8830;50.978;5.058;2022-07-29T10:54:42;27.40;99.90
17425;DHT22;8830;50.978;5.058;2022-07-29T10:57:15;27.30;99.90
17425;DHT22;8830;50.978;5.058;2022-07-29T10:59:44;27.50;99.90
17425;DHT22;8830;50.978;5.058;2022-07-29T11:02:43;27.80;99.90
17425;DHT22;8830;50.978;5.058;2022-07-29T11:05:15;27.50;99.90
17425;DHT22;8830;50.978;5.058;2022-07-29T11:08:18;27.70;99.90
17425;DHT22;8830;50.978;5.058;2022-07-29T11:10:48;27.80;99.90
17425;DHT22;8830;50.978;5.058;2022-07-29T11:13:47;27.90;99.90
17425;DHT22;8830;50.978;5.058;2022-07-29T11:16:17;28.00;99.90
17425;DHT22;8830;50.978;5.058;2022-07-29T11:21:56;27.90;99.90
17425;DHT22;8830;50.978;5.058;2022-07-29T11:24:24;27.30;99.90
17425;DHT22;8830;50.978;5.058;2022-07-29T11:27:14;27.20;99.90
17425;DHT22;8830;50.978;5.058;2022-07-29T11:29:54;27.40;99.90
17425;DHT22;8830;50.978;5.058;2022-07-29T11:32:22;27.40;99.90
17425;DHT22;8830;50.978;5.058;2022-07-29T11:35:11;27.40;99.90
17425;DHT22;8830;50.978;5.058;2022-07-29T11:40:16;27.80;99.90
17425;DHT22;8830;50.978;5.058;2022-07-29T11:42:48;27.70;99.90
17425;DHT22;8830;50.978;5.058;2022-07-29T11:45:25;27.50;99.90
17425;DHT22;8830;50.978;5.058;2022-07-29T11:47:58;27.40;99.90
17425;DHT22;8830;50.978;5.058;2022-07-29T11:50:34;27.50;99.90
17425;DHT22;8830;50.978;5.058;2022-07-29T11:53:09;27.50;99.90
17425;DHT22;8830;50.978;5.058;2022-07-29T11:55:38;27.50;99.90
17425;DHT22;8830;50.978;5.058;2022-07-29T11:58:06;27.50;99.90
17425;DHT22;8830;50.978;5.058;2022-07-29T12:00:35;27.40;99.90
17425;DHT22;8830;50.978;5.058;2022-07-29T12:03:08;27.60;99.90
17425;DHT22;8830;50.978;5.058;2022-07-29T12:05:41;28.10;99.90
17425;DHT22;8830;50.978;5.058;2022-07-29T12:08:14;28.10;99.90
17425;DHT22;8830;50.978;5.058;2022-07-29T12:10:49;28.00;99.90
17425;DHT22;8830;50.978;5.058;2022-07-29T12:13:20;27.80;99.90
17425;DHT22;8830;50.978;5.058;2022-07-29T12:15:54;27.40;99.90
17425;DHT22;8830;50.978;5.058;2022-07-29T12:18:22;27.40;99.90
17425;DHT22;8830;50.978;5.058;2022-07-29T12:20:57;27.60;99.90
17425;DHT22;8830;50.978;5.058;2022-07-29T12:25:53;28.10;99.90
17425;DHT22;8830;50.978;5.058;2022-07-29T12:28:21;28.10;99.90
17425;DHT22;8830;50.978;5.058;2022-07-29T12:30:49;28.40;99.90
17425;DHT22;8830;50.978;5.058;2022-07-29T12:33:19;28.50;99.90
17425;DHT22;8830;50.978;5.058;2022-07-29T12:35:49;28.50;99.90
17425;DHT22;8830;50.978;5.058;2022-07-29T12:38:17;28.70;99.90
17425;DHT22;8830;50.978;5.058;2022-07-29T12:40:47;28.70;99.90
17425;DHT22;8830;50.978;5.058;2022-07-29T12:43:15;28.30;99.90
17425;DHT22;8830;50.978;5.058;2022-07-29T12:45:46;28.10;99.90
17425;DHT22;8830;50.978;5.058;2022-07-29T12:48:13;28.10;99.90
17425;DHT22;8830;50.978;5.058;2022-07-29T12:50:54;28.10;99.90
17425;DHT22;8830;50.978;5.058;2022-07-29T12:53:22;28.30;99.90
17425;DHT22;8830;50.978;5.058;2022-07-29T12:55:53;28.40;99.90
17425;DHT22;8830;50.978;5.058;2022-07-29T12:58:32;28.40;99.90
17425;DHT22;8830;50.978;5.058;2022-07-29T13:01:08;28.40;99.90
17425;DHT22;8830;50.978;5.058;2022-07-29T13:03:48;27.90;99.90
17425;DHT22;8830;50.978;5.058;2022-07-29T13:06:33;27.90;99.90
17425;DHT22;8830;50.978;5.058;2022-07-29T13:09:03;28.10;99.90
17425;DHT22;8830;50.978;5.058;2022-07-29T13:11:34;28.40;99.90
17425;DHT22;8830;50.978;5.058;2022-07-29T13:16:29;28.60;99.90
17425;DHT22;8830;50.978;5.058;2022-07-29T13:19:07;28.50;99.90
17425;DHT22;8830;50.978;5.058;2022-07-29T13:21:35;28.60;99.90
17425;DHT22;8830;50.978;5.058;2022-07-29T13:29:02;28.40;99.90
17425;DHT22;8830;50.978;5.058;2022-07-29T13:31:30;29.80;99.90
17425;DHT22;8830;50.978;5.058;2022-07-29T13:33:57;27.00;99.90
17425;DHT22;8830;50.978;5.058;2022-07-29T13:36:24;27.90;99.90
17425;DHT22;8830;50.978;5.058;2022-07-29T13:41:20;28.20;99.90
17425;DHT22;8830;50.978;5.058;2022-07-29T13:48:47;28.70;99.90
17425;DHT22;8830;50.978;5.058;2022-07-29T13:51:19;28.80;99.90
17425;DHT22;8830;50.978;5.058;2022-07-29T13:53:46;28.80;99.90
17425;DHT22;8830;50.978;5.058;2022-07-29T13:56:14;28.90;99.90
17425;DHT22;8830;50.978;5.058;2022-07-29T14:01:10;28.70;99.90
17425;DHT22;8830;50.978;5.058;2022-07-29T14:03:38;28.50;99.90
17425;DHT22;8830;50.978;5.058;2022-07-29T14:06:07;28.10;99.90
17425;DHT22;8830;50.978;5.058;2022-07-29T14:08:34;28.00;99.90
17425;DHT22;8830;50.978;5.058;2022-07-29T14:11:01;28.30;99.90
17425;DHT22;8830;50.978;5.058;2022-07-29T14:38:10;28.70;99.90
17425;DHT22;8830;50.978;5.058;2022-07-29T14:40:37;28.60;99.90
17425;DHT22;8830;50.978;5.058;2022-07-29T14:43:05;28.10;99.90
17425;DHT22;8830;50.978;5.058;2022-07-29T14:45:32;28.10;99.90
17425;DHT22;8830;50.978;5.058;2022-07-29T14:48:02;28.50;99.90
17425;DHT22;8830;50.978;5.058;2022-07-29T14:52:59;28.70;99.90
17425;DHT22;8830;50.978;5.058;2022-07-29T15:05:25;28.70;99.90
17425;DHT22;8830;50.978;5.058;2022-07-29T15:07:55;28.90;99.90
17425;DHT22;8830;50.978;5.058;2022-07-29T15:25:21;28.30;99.90
17425;DHT22;8830;50.978;5.058;2022-07-29T15:27:49;28.20;99.90
17425;DHT22;8830;50.978;5.058;2022-07-29T15:30:16;28.30;99.90
17425;DHT22;8830;50.978;5.058;2022-07-29T15:32:43;28.20;99.90
17425;DHT22;8830;50.978;5.058;2022-07-29T15:37:40;28.10;99.90
17425;DHT22;8830;50.978;5.058;2022-07-29T15:47:35;28.10;99.90
17425;DHT22;8830;50.978;5.058;2022-07-29T15:59:56;28.20;99.90
17425;DHT22;8830;50.978;5.058;2022-07-29T16:17:14;28.70;99.90
17425;DHT22;8830;50.978;5.058;2022-07-29T16:19:43;28.70;99.90
17425;DHT22;8830;50.978;5.058;2022-07-29T16:22:10;28.90;99.90
17425;DHT22;8830;50.978;5.058;2022-07-29T16:24:40;29.00;99.60
17425;DHT22;8830;50.978;5.058;2022-07-29T16:27:08;28.80;99.60
17425;DHT22;8830;50.978;5.058;2022-07-29T16:29:35;28.80;99.90
17425;DHT22;8830;50.978;5.058;2022-07-29T16:32:02;28.90;99.70
17425;DHT22;8830;50.978;5.058;2022-07-29T16:34:31;28.80;99.20
17425;DHT22;8830;50.978;5.058;2022-07-29T16:41:55;28.50;99.70
17425;DHT22;8830;50.978;5.058;2022-07-29T16:44:24;28.40;99.90
17425;DHT22;8830;50.978;5.058;2022-07-29T16:46:56;28.30;99.30
17425;DHT22;8830;50.978;5.058;2022-07-29T16:56:49;27.90;99.90
17425;DHT22;8830;50.978;5.058;2022-07-29T16:59:16;27.60;99.90
17425;DHT22;8830;50.978;5.058;2022-07-29T17:01:43;27.40;99.90
17425;DHT22;8830;50.978;5.058;2022-07-29T17:04:10;27.40;99.90
17425;DHT22;8830;50.978;5.058;2022-07-29T17:06:40;27.30;99.90
17425;DHT22;8830;50.978;5.058;2022-07-29T17:09:09;27.20;99.90
17425;DHT22;8830;50.978;5.058;2022-07-29T17:16:34;27.10;99.90
17425;DHT22;8830;50.978;5.058;2022-07-29T17:19:01;27.00;99.90
17425;DHT22;8830;50.978;5.058;2022-07-29T17:21:29;26.90;99.90
17425;DHT22;8830;50.978;5.058;2022-07-29T17:23:57;26.90;99.90
17425;DHT22;8830;50.978;5.058;2022-07-29T17:36:26;26.50;99.90
17425;DHT22;8830;50.978;5.058;2022-07-29T17:38:57;26.50;99.90
17425;DHT22;8830;50.978;5.058;2022-07-29T17:41:28;26.60;99.90
17425;DHT22;8830;50.978;5.058;2022-07-29T17:46:26;26.80;99.90
17425;DHT22;8830;50.978;5.058;2022-07-29T17:48:57;26.80;99.90
17425;DHT22;8830;50.978;5.058;2022-07-29T17:51:26;26.80;99.90
17425;DHT22;8830;50.978;5.058;2022-07-29T17:53:54;26.80;99.90
17425;DHT22;8830;50.978;5.058;2022-07-29T17:56:24;26.70;99.90
17425;DHT22;8830;50.978;5.058;2022-07-29T17:58:51;26.60;99.90
17425;DHT22;8830;50.978;5.058;2022-07-29T18:03:48;26.50;99.90
17425;DHT22;8830;50.978;5.058;2022-07-29T18:06:16;26.40;99.90
17425;DHT22;8830;50.978;5.058;2022-07-29T18:08:43;26.40;99.90
17425;DHT22;8830;50.978;5.058;2022-07-29T18:11:15;26.30;99.90
17425;DHT22;8830;50.978;5.058;2022-07-29T18:13:42;26.30;99.90
17425;DHT22;8830;50.978;5.058;2022-07-29T18:16:09;26.20;99.90
17425;DHT22;8830;50.978;5.058;2022-07-29T18:18:44;26.20;99.90
17425;DHT22;8830;50.978;5.058;2022-07-29T18:23:42;26.00;99.90
17425;DHT22;8830;50.978;5.058;2022-07-29T18:26:09;25.90;99.90
17425;DHT22;8830;50.978;5.058;2022-07-29T18:28:36;25.80;99.90
17425;DHT22;8830;50.978;5.058;2022-07-29T18:31:03;25.80;99.90
17425;DHT22;8830;50.978;5.058;2022-07-29T18:33:31;25.60;99.90
17425;DHT22;8830;50.978;5.058;2022-07-29T18:36:00;25.80;99.90
17425;DHT22;8830;50.978;5.058;2022-07-29T18:38:28;25.50;99.90
17425;DHT22;8830;50.978;5.058;2022-07-29T18:40:56;25.30;99.90
17425;DHT22;8830;50.978;5.058;2022-07-29T18:43:25;25.20;99.90
17425;DHT22;8830;50.978;5.058;2022-07-29T18:45:52;25.10;99.90
17425;DHT22;8830;50.978;5.058;2022-07-29T18:48:19;25.00;99.90
17425;DHT22;8830;50.978;5.058;2022-07-29T18:50:46;24.90;99.90
17425;DHT22;8830;50.978;5.058;2022-07-29T18:55:43;24.90;99.90
17425;DHT22;8830;50.978;5.058;2022-07-29T18:58:22;24.90;99.90
17425;DHT22;8830;50.978;5.058;2022-07-29T19:03:17;24.80;99.90
17425;DHT22;8830;50.978;5.058;2022-07-29T19:05:44;24.60;99.90
17425;DHT22;8830;50.978;5.058;2022-07-29T19:08:12;24.60;99.90
17425;DHT22;8830;50.978;5.058;2022-07-29T19:13:08;24.40;99.90
17425;DHT22;8830;50.978;5.058;2022-07-29T19:15:36;24.30;99.90
17425;DHT22;8830;50.978;5.058;2022-07-29T19:20:31;24.20;99.90
17425;DHT22;8830;50.978;5.058;2022-07-29T19:23:02;24.10;99.90
17425;DHT22;8830;50.978;5.058;2022-07-29T19:25:41;25.20;99.90
17425;DHT22;8830;50.978;5.058;2022-07-29T19:28:09;24.00;99.90
17425;DHT22;8830;50.978;5.058;2022-07-29T19:33:09;23.80;99.90
17425;DHT22;8830;50.978;5.058;2022-07-29T19:35:38;23.80;99.90
17425;DHT22;8830;50.978;5.058;2022-07-29T19:38:05;23.60;99.90
17425;DHT22;8830;50.978;5.058;2022-07-29T19:40:33;23.70;99.90
17425;DHT22;8830;50.978;5.058;2022-07-29T19:47:59;23.40;99.90
17425;DHT22;8830;50.978;5.058;2022-07-29T19:58:10;23.20;99.90
17425;DHT22;8830;50.978;5.058;2022-07-29T20:03:08;23.10;99.90
17425;DHT22;8830;50.978;5.058;2022-07-29T20:05:36;23.00;99.90
17425;DHT22;8830;50.978;5.058;2022-07-29T20:08:03;22.90;99.90
17425;DHT22;8830;50.978;5.058;2022-07-29T20:10:37;22.80;99.90
17425;DHT22;8830;50.978;5.058;2022-07-29T20:15:37;22.80;99.90
17425;DHT22;8830;50.978;5.058;2022-07-29T20:18:04;22.60;99.90
17425;DHT22;8830;50.978;5.058;2022-07-29T20:20:32;22.70;99.90
17425;DHT22;8830;50.978;5.058;2022-07-29T20:23:00;22.60;99.90